Time;durP1;ratioP1;P1;durP2;ratioP2;P2;SDS_P1;SDS_P2;PMS_P1;PMS_P2;Temp;Humidity;BMP_temperature;BMP_pressure;BME280_temperature;BME280_humidity;BME280_pressure;Samples;Min_cycle;Max_cycle;Signal;HPM_P1;HPM_P2
2022/05/25 00:01:08;;;;;;;15.13;7.30;;;;;;;;;;4952497;29;20027;-66
2022/05/25 00:03:35;;;;;;;15.00;7.78;;;;;;;;;;4952590;29;20118;-66
2022/05/25 00:06:04;;;;;;;15.05;8.30;;;;;;;;;;4952505;28;20031;-66
2022/05/25 00:08:30;;;;;;;;;;;;;;;;;;4952551;29;20049;-66
2022/05/25 00:10:56;;;;;;;16.45;8.10;;;;;;;;;;4952325;28;19910;-66
2022/05/25 00:13:23;;;;;;;15.98;8.23;;;;;;;;;;5018664;28;20027;-66
2022/05/25 00:15:49;;;;;;;16.05;7.65;;;;;;;;;;5018563;28;20089;-65
2022/05/25 00:18:15;;;;;;;18.50;8.77;;;;;;;;;;5018083;28;20422;-67
2022/05/25 00:20:41;;;;;;;14.70;7.50;;;;;;;;;;4952657;29;20028;-65
2022/05/25 00:23:07;;;;;;;16.08;7.70;;;;;;;;;;4952583;29;20548;-65
2022/05/25 00:25:38;;;;;;;14.90;7.95;;;;;;;;;;5018343;28;20035;-65
2022/05/25 00:28:05;;;;;;;16.55;8.40;;;;;;;;;;4951934;28;20035;-65
2022/05/25 00:30:32;;;;;;;15.93;7.65;;;;;;;;;;4952490;29;20035;-65
2022/05/25 00:33:00;;;;;;;18.35;8.40;;;;;;;;;;4952567;29;20372;-65
2022/05/25 00:35:27;;;;;;;16.50;8.30;;;;;;;;;;4951354;29;20051;-65
2022/05/25 00:37:53;;;;;;;18.23;8.32;;;;;;;;;;4952047;28;20039;-65
2022/05/25 00:40:20;;;;;;;16.35;7.93;;;;;;;;;;4952165;28;20039;-65
2022/05/25 00:42:46;;;;;;;15.60;8.03;;;;;;;;;;4952016;28;20023;-65
2022/05/25 00:45:13;;;;;;;16.45;8.02;;;;;;;;;;4951899;28;20289;-65
2022/05/25 00:47:40;;;;;;;15.55;8.25;;;;;;;;;;5017701;28;20399;-65
2022/05/25 00:50:06;;;;;;;16.33;9.02;;;;;;;;;;4951372;29;20066;-65
2022/05/25 00:52:32;;;;;;;16.27;9.32;;;;;;;;;;4951422;28;20394;-65
2022/05/25 00:55:03;;;;;;;15.80;8.32;;;;;;;;;;4951879;28;20028;-65
2022/05/25 00:57:34;;;;;;;17.27;9.07;;;;;;;;;;5017591;28;20034;-65
2022/05/25 01:00:12;;;;;;;16.05;8.40;;;;;;;;;;5017816;28;20073;-65
2022/05/25 01:02:42;;;;;;;16.50;9.23;;;;;;;;;;4951850;29;20612;-65
2022/05/25 01:05:08;;;;;;;16.52;9.20;;;;;;;;;;4951759;29;20062;-65
2022/05/25 01:07:44;;;;;;;18.40;10.02;;;;;;;;;;4951219;29;20051;-65
2022/05/25 01:10:12;;;;;;;19.05;9.27;;;;;;;;;;4951753;29;20023;-65
2022/05/25 01:12:38;;;;;;;;;;;;;;;;;;4952112;28;20702;-65
2022/05/25 01:15:07;;;;;;;17.63;9.52;;;;;;;;;;4951588;28;20001;-65
2022/05/25 01:17:59;;;;;;;17.30;9.43;;;;;;;;;;5017099;28;20405;-65
2022/05/25 01:20:42;;;;;;;18.00;9.63;;;;;;;;;;5017338;28;20427;-65
2022/05/25 01:23:22;;;;;;;18.20;9.80;;;;;;;;;;4951241;29;20031;-66
2022/05/25 01:25:57;;;;;;;17.58;9.63;;;;;;;;;;5017546;28;20061;-65
2022/05/25 01:28:40;;;;;;;17.52;9.43;;;;;;;;;;4951012;28;20055;-66
2022/05/25 01:31:10;;;;;;;17.55;9.05;;;;;;;;;;4951529;29;20030;-66
2022/05/25 01:33:45;;;;;;;20.90;10.00;;;;;;;;;;5017274;28;20085;-66
2022/05/25 01:36:32;;;;;;;18.30;10.88;;;;;;;;;;5017291;28;20061;-66
2022/05/25 01:38:58;;;;;;;22.10;11.23;;;;;;;;;;4950910;29;20101;-66
2022/05/25 01:41:24;;;;;;;18.50;11.25;;;;;;;;;;5017339;28;20122;-66
2022/05/25 01:44:01;;;;;;;21.25;11.45;;;;;;;;;;4951206;29;20031;-66
2022/05/25 01:46:27;;;;;;;22.05;11.65;;;;;;;;;;5018836;28;20027;-68
2022/05/25 01:48:55;;;;;;;19.83;10.90;;;;;;;;;;5021051;28;20030;-66
2022/05/25 01:51:22;;;;;;;19.05;11.02;;;;;;;;;;4954433;29;20475;-65
2022/05/25 01:53:51;;;;;;;20.90;11.77;;;;;;;;;;4954459;29;20063;-66
2022/05/25 01:56:19;;;;;;;18.85;10.95;;;;;;;;;;4954324;29;20353;-65
2022/05/25 01:58:46;;;;;;;19.17;10.48;;;;;;;;;;4954368;28;20035;-66
2022/05/25 02:01:13;;;;;;;20.00;11.20;;;;;;;;;;4954512;29;20042;-66
2022/05/25 02:06:24;;;;;;;18.67;11.00;;;;;;;;;;4954601;29;20442;-66
2022/05/25 02:08:53;;;;;;;23.40;11.88;;;;;;;;;;4954522;28;20020;-65
2022/05/25 02:11:22;;;;;;;19.80;11.90;;;;;;;;;;4954486;29;20023;-67
2022/05/25 02:13:53;;;;;;;20.70;12.27;;;;;;;;;;5021024;28;20065;-66
2022/05/25 02:16:19;;;;;;;20.63;11.63;;;;;;;;;;4954128;29;20062;-66
2022/05/25 02:18:48;;;;;;;20.08;11.55;;;;;;;;;;4953732;29;20026;-66
2022/05/25 02:21:21;;;;;;;21.50;12.10;;;;;;;;;;4954075;28;20065;-66
2022/05/25 02:23:52;;;;;;;19.10;11.43;;;;;;;;;;5020332;28;20034;-65
2022/05/25 02:26:27;;;;;;;18.45;11.27;;;;;;;;;;4953829;28;20387;-66
2022/05/25 02:28:55;;;;;;;19.90;12.05;;;;;;;;;;4953550;28;20098;-65
2022/05/25 02:31:21;;;;;;;;;;;;;;;;;;4954503;29;20027;-67
2022/05/25 02:33:50;;;;;;;20.38;11.73;;;;;;;;;;4954140;29;20374;-65
2022/05/25 02:36:16;;;;;;;19.55;11.95;;;;;;;;;;5020314;28;20042;-65
2022/05/25 02:38:43;;;;;;;20.40;11.20;;;;;;;;;;4953801;29;20123;-65
2022/05/25 02:41:11;;;;;;;21.02;12.07;;;;;;;;;;5020413;28;20495;-67
2022/05/25 02:43:38;;;;;;;23.17;13.23;;;;;;;;;;5020481;28;20559;-65
2022/05/25 02:46:04;;;;;;;21.50;12.57;;;;;;;;;;4954151;28;20031;-65
2022/05/25 02:48:30;;;;;;;20.60;13.55;;;;;;;;;;4953544;28;20568;-65
2022/05/25 02:50:56;;;;;;;20.33;12.93;;;;;;;;;;4953659;28;20102;-66
2022/05/25 02:53:23;;;;;;;21.38;12.55;;;;;;;;;;4953668;28;20059;-65
2022/05/25 02:55:49;;;;;;;21.55;12.35;;;;;;;;;;4953547;28;20044;-65
2022/05/25 02:58:15;;;;;;;20.35;12.57;;;;;;;;;;4952399;28;20034;-66
2022/05/25 03:00:41;;;;;;;21.75;12.50;;;;;;;;;;4953743;28;20027;-65
2022/05/25 03:03:07;;;;;;;21.08;12.90;;;;;;;;;;4953509;28;20028;-66
2022/05/25 03:05:33;;;;;;;19.63;12.70;;;;;;;;;;4953308;29;20026;-65
2022/05/25 03:07:59;;;;;;;21.05;12.98;;;;;;;;;;4953068;29;20015;-65
2022/05/25 03:10:25;;;;;;;20.23;12.27;;;;;;;;;;4953398;29;20038;-65
2022/05/25 03:12:51;;;;;;;20.60;13.23;;;;;;;;;;4953228;29;20024;-65
2022/05/25 03:15:20;;;;;;;21.80;12.43;;;;;;;;;;4953185;29;20074;-65
2022/05/25 03:17:46;;;;;;;;;;;;;;;;;;5019477;28;20034;-65
2022/05/25 03:20:12;;;;;;;22.58;14.27;;;;;;;;;;4953297;28;19906;-65
2022/05/25 03:22:40;;;;;;;20.95;12.80;;;;;;;;;;4952895;29;20035;-65
2022/05/25 03:25:07;;;;;;;21.05;13.02;;;;;;;;;;5019487;28;20028;-65
2022/05/25 03:27:32;;;;;;;23.08;13.65;;;;;;;;;;4952638;29;20038;-65
2022/05/25 03:29:59;;;;;;;21.55;13.98;;;;;;;;;;4952933;28;20036;-65
2022/05/25 03:32:25;;;;;;;20.10;12.57;;;;;;;;;;4952944;29;20514;-65
2022/05/25 03:34:51;;;;;;;19.52;12.30;;;;;;;;;;5019366;28;20487;-65
2022/05/25 03:37:17;;;;;;;21.77;13.57;;;;;;;;;;4952657;29;20115;-66
2022/05/25 03:39:43;;;;;;;20.27;12.25;;;;;;;;;;4952817;28;20035;-65
2022/05/25 03:42:12;;;;;;;23.10;13.02;;;;;;;;;;4952747;28;20061;-65
2022/05/25 03:44:38;;;;;;;25.27;13.43;;;;;;;;;;4952475;29;20429;-65
2022/05/25 03:47:04;;;;;;;21.17;12.98;;;;;;;;;;5018891;28;20028;-65
2022/05/25 03:49:30;;;;;;;21.77;12.95;;;;;;;;;;4952465;29;20387;-65
2022/05/25 03:51:56;;;;;;;20.58;11.23;;;;;;;;;;5018898;28;20436;-65
2022/05/25 03:54:22;;;;;;;21.63;12.38;;;;;;;;;;4952439;29;20527;-65
2022/05/25 03:56:48;;;;;;;21.48;12.48;;;;;;;;;;4952515;29;20161;-65
2022/05/25 03:59:15;;;;;;;21.23;12.68;;;;;;;;;;4952333;29;20153;-65
2022/05/25 04:01:41;;;;;;;20.20;11.70;;;;;;;;;;5019437;28;20652;-65
2022/05/25 04:04:07;;;;;;;27.23;14.25;;;;;;;;;;4952338;28;20116;-65
2022/05/25 04:06:33;;;;;;;20.80;12.63;;;;;;;;;;4952481;29;20031;-66
2022/05/25 04:08:59;;;;;;;20.90;13.23;;;;;;;;;;4951589;28;20023;-66
2022/05/25 04:11:25;;;;;;;21.70;12.82;;;;;;;;;;4952193;29;20023;-65
2022/05/25 04:13:52;;;;;;;21.52;13.30;;;;;;;;;;4952579;29;20035;-66
2022/05/25 04:16:18;;;;;;;20.00;11.55;;;;;;;;;;4952100;29;20115;-66
2022/05/25 04:18:44;;;;;;;19.90;12.23;;;;;;;;;;4951968;28;20058;-65
2022/05/25 04:21:10;;;;;;;22.80;11.93;;;;;;;;;;5018339;28;20122;-67
2022/05/25 04:23:36;;;;;;;19.65;12.00;;;;;;;;;;4951978;29;20039;-66
2022/05/25 04:26:02;;;;;;;19.35;12.05;;;;;;;;;;4952208;28;20054;-66
2022/05/25 04:28:28;;;;;;;21.65;11.35;;;;;;;;;;4952008;28;20030;-67
2022/05/25 04:30:54;;;;;;;19.63;11.15;;;;;;;;;;4952090;28;20019;-65
2022/05/25 04:33:20;;;;;;;19.90;11.38;;;;;;;;;;4951901;29;20027;-66
2022/05/25 04:35:46;;;;;;;21.33;11.80;;;;;;;;;;5018242;28;20038;-67
2022/05/25 04:38:15;;;;;;;20.15;11.30;;;;;;;;;;4951443;28;20024;-66
2022/05/25 04:40:43;;;;;;;18.63;10.93;;;;;;;;;;5017994;28;20027;-66
2022/05/25 04:43:12;;;;;;;18.58;11.40;;;;;;;;;;4951872;29;20043;-66
2022/05/25 04:45:38;;;;;;;18.17;11.25;;;;;;;;;;5017681;28;20020;-67
2022/05/25 04:48:05;;;;;;;17.50;10.40;;;;;;;;;;4951491;28;20031;-66
2022/05/25 04:50:34;;;;;;;18.02;10.63;;;;;;;;;;4951725;28;20027;-66
2022/05/25 04:53:00;;;;;;;19.73;11.23;;;;;;;;;;4951862;28;20077;-66
2022/05/25 04:58:19;;;;;;;20.77;11.15;;;;;;;;;;4951497;29;20046;-66
2022/05/25 05:00:45;;;;;;;19.75;11.15;;;;;;;;;;4951407;28;20023;-66
2022/05/25 05:03:11;;;;;;;20.45;11.18;;;;;;;;;;4951280;29;20124;-67
2022/05/25 05:05:37;;;;;;;17.58;10.02;;;;;;;;;;5017650;28;20034;-67
2022/05/25 05:08:03;;;;;;;17.52;10.02;;;;;;;;;;5017274;28;20118;-67
2022/05/25 05:10:29;;;;;;;17.45;10.25;;;;;;;;;;4950948;29;20031;-65
2022/05/25 05:12:55;;;;;;;18.55;10.52;;;;;;;;;;5017077;28;20043;-66
2022/05/25 05:15:22;;;;;;;17.15;10.13;;;;;;;;;;5016917;28;20039;-66
2022/05/25 05:17:48;;;;;;;23.30;10.27;;;;;;;;;;4950535;29;20054;-66
2022/05/25 05:20:14;;;;;;;18.67;10.75;;;;;;;;;;4950523;28;20046;-66
2022/05/25 05:22:40;;;;;;;18.35;10.45;;;;;;;;;;5016979;28;20434;-66
2022/05/25 05:25:07;;;;;;;20.00;10.25;;;;;;;;;;5016705;28;20424;-67
2022/05/25 05:27:33;;;;;;;19.35;10.25;;;;;;;;;;4950568;29;20024;-66
2022/05/25 05:30:01;;;;;;;17.83;10.27;;;;;;;;;;4950560;28;20036;-67
2022/05/25 05:32:29;;;;;;;19.23;9.98;;;;;;;;;;4950627;29;20027;-67
2022/05/25 05:34:55;;;;;;;;;;;;;;;;;;4951962;29;20117;-65
2022/05/25 05:37:27;;;;;;;20.92;10.48;;;;;;;;;;4950844;28;19950;-66
2022/05/25 05:39:55;;;;;;;20.10;10.18;;;;;;;;;;4951043;29;20085;-66
2022/05/25 05:42:21;;;;;;;18.80;10.35;;;;;;;;;;4950766;28;20031;-65
2022/05/25 05:44:52;;;;;;;19.95;10.15;;;;;;;;;;4950379;29;20027;-66
2022/05/25 05:47:24;;;;;;;19.13;10.45;;;;;;;;;;4968273;23;21432;-60
2022/05/25 05:49:50;;;;;;;18.05;10.07;;;;;;;;;;4949120;29;20035;-61
2022/05/25 05:52:17;;;;;;;21.98;10.77;;;;;;;;;;4949101;29;20046;-58
2022/05/25 05:54:44;;;;;;;21.98;10.98;;;;;;;;;;4949468;28;20031;-58
2022/05/25 05:57:11;;;;;;;20.85;10.70;;;;;;;;;;4949472;29;20062;-58
2022/05/25 05:59:38;;;;;;;19.77;11.10;;;;;;;;;;4949327;29;20031;-58
2022/05/25 06:02:04;;;;;;;20.73;11.07;;;;;;;;;;5015432;28;20031;-60
2022/05/25 06:04:30;;;;;;;18.65;10.75;;;;;;;;;;4949402;29;20050;-61
2022/05/25 06:06:56;;;;;;;23.30;11.43;;;;;;;;;;4949824;29;20023;-61
2022/05/25 06:09:22;;;;;;;18.83;10.48;;;;;;;;;;4948608;28;20028;-59
2022/05/25 06:11:48;;;;;;;22.45;11.20;;;;;;;;;;4948643;28;20050;-56
2022/05/25 06:14:14;;;;;;;20.88;12.40;;;;;;;;;;4949166;29;20494;-60
2022/05/25 06:19:30;;;;;;;22.90;11.32;;;;;;;;;;4949344;29;20513;-60
2022/05/25 06:21:58;;;;;;;23.63;11.52;;;;;;;;;;4949018;29;20427;-61
2022/05/25 06:24:24;;;;;;;20.42;12.13;;;;;;;;;;4948790;29;20028;-61
2022/05/25 06:26:50;;;;;;;21.02;12.30;;;;;;;;;;4949329;29;20067;-62
2022/05/25 06:29:17;;;;;;;20.98;12.10;;;;;;;;;;4949001;29;20077;-68
2022/05/25 06:31:44;;;;;;;20.60;11.77;;;;;;;;;;4949156;29;20020;-61
2022/05/25 06:34:10;;;;;;;22.70;12.27;;;;;;;;;;4951589;29;20091;-63
2022/05/25 06:36:36;;;;;;;20.85;12.38;;;;;;;;;;4952349;28;20376;-60
2022/05/25 06:39:02;;;;;;;22.98;12.90;;;;;;;;;;4951923;29;20062;-61
2022/05/25 06:41:28;;;;;;;24.38;13.45;;;;;;;;;;4952140;29;20031;-61
2022/05/25 06:43:55;;;;;;;25.88;14.05;;;;;;;;;;4952060;29;20077;-61
2022/05/25 06:46:21;;;;;;;22.75;13.65;;;;;;;;;;4952511;29;20020;-61
2022/05/25 06:48:52;;;;;;;22.85;13.35;;;;;;;;;;5018529;28;20046;-62
2022/05/25 06:51:19;;;;;;;23.10;14.40;;;;;;;;;;4951907;29;20471;-62
2022/05/25 06:53:45;;;;;;;25.10;13.88;;;;;;;;;;4951556;29;20034;-58
2022/05/25 06:56:12;;;;;;;25.55;15.18;;;;;;;;;;4952140;29;20023;-58
2022/05/25 06:58:37;;;;;;;26.08;13.85;;;;;;;;;;4951543;29;20031;-61
2022/05/25 07:01:04;;;;;;;22.45;14.18;;;;;;;;;;4951679;29;20133;-62
2022/05/25 07:03:30;;;;;;;26.33;14.43;;;;;;;;;;4951446;29;20168;-60
2022/05/25 07:05:57;;;;;;;22.55;13.00;;;;;;;;;;4951775;29;20026;-62
2022/05/25 07:08:24;;;;;;;25.90;14.13;;;;;;;;;;4951441;29;20023;-61
2022/05/25 07:10:50;;;;;;;22.48;13.32;;;;;;;;;;4951794;29;20057;-61
2022/05/25 07:13:17;;;;;;;23.70;14.15;;;;;;;;;;4952924;29;20479;-57
2022/05/25 07:15:43;;;;;;;22.17;12.68;;;;;;;;;;4951971;29;20035;-61
2022/05/25 07:18:09;;;;;;;22.25;13.23;;;;;;;;;;4951799;29;20027;-61
2022/05/25 07:20:35;;;;;;;21.90;12.70;;;;;;;;;;4951697;29;20114;-61
2022/05/25 07:23:01;;;;;;;22.92;13.13;;;;;;;;;;4951230;29;20031;-61
2022/05/25 07:25:27;;;;;;;21.15;13.00;;;;;;;;;;4951481;29;20034;-62
2022/05/25 07:27:53;;;;;;;20.42;12.68;;;;;;;;;;4951365;29;20110;-63
2022/05/25 07:30:20;;;;;;;20.88;12.23;;;;;;;;;;4951294;28;20082;-63
2022/05/25 07:32:46;;;;;;;20.45;12.55;;;;;;;;;;4951190;28;20031;-63
2022/05/25 07:35:14;;;;;;;21.58;10.98;;;;;;;;;;4941940;28;20047;-64
2022/05/25 07:37:41;;;;;;;19.40;11.10;;;;;;;;;;4941635;28;20727;-62
2022/05/25 07:40:09;;;;;;;22.08;11.23;;;;;;;;;;4934823;29;20035;-61
2022/05/25 07:42:35;;;;;;;17.75;10.07;;;;;;;;;;4997713;28;20036;-63
2022/05/25 07:45:03;;;;;;;18.70;9.98;;;;;;;;;;4931652;28;20036;-63
2022/05/25 07:47:31;;;;;;;19.80;11.13;;;;;;;;;;4933915;28;20023;-63
2022/05/25 07:49:57;;;;;;;22.15;10.82;;;;;;;;;;4940240;28;20475;-62
2022/05/25 07:52:24;;;;;;;22.88;11.18;;;;;;;;;;4935501;28;20020;-63
2022/05/25 07:54:50;;;;;;;19.05;10.77;;;;;;;;;;4931662;28;20063;-64
2022/05/25 07:57:17;;;;;;;21.60;11.45;;;;;;;;;;4930973;28;20081;-62
2022/05/25 07:59:43;;;;;;;18.73;9.90;;;;;;;;;;4930982;28;20042;-63
2022/05/25 08:07:45;;;;;;;18.73;9.98;;;;;;;;;;4931434;28;20125;-62
2022/05/25 08:10:14;;;;;;;19.67;10.02;;;;;;;;;;4931308;28;20059;-61
2022/05/25 08:12:41;;;;;;;19.25;10.10;;;;;;;;;;4931385;28;20077;-62
2022/05/25 08:15:08;;;;;;;17.77;9.45;;;;;;;;;;4931381;28;20051;-62
2022/05/25 08:17:34;;;;;;;16.20;9.82;;;;;;;;;;4996996;28;20118;-61
2022/05/25 08:20:00;;;;;;;18.40;9.68;;;;;;;;;;4931732;28;20035;-61
2022/05/25 08:22:26;;;;;;;17.08;9.25;;;;;;;;;;4931719;28;20357;-62
2022/05/25 08:24:52;;;;;;;18.50;9.30;;;;;;;;;;4931558;28;20027;-62
2022/05/25 08:27:18;;;;;;;17.23;9.50;;;;;;;;;;4931355;28;20433;-61
2022/05/25 08:29:44;;;;;;;16.02;9.05;;;;;;;;;;4931587;28;20031;-61
2022/05/25 08:32:10;;;;;;;17.65;8.90;;;;;;;;;;4931407;29;20016;-62
2022/05/25 08:34:37;;;;;;;16.20;8.98;;;;;;;;;;4931427;28;20464;-61
2022/05/25 08:37:03;;;;;;;17.42;9.20;;;;;;;;;;4931442;29;20034;-61
2022/05/25 08:39:29;;;;;;;18.60;9.60;;;;;;;;;;4931400;28;20054;-61
2022/05/25 08:41:57;;;;;;;15.95;9.25;;;;;;;;;;4931682;28;20110;-60
2022/05/25 08:44:24;;;;;;;17.50;9.50;;;;;;;;;;4931822;29;20039;-63
2022/05/25 08:46:55;;;;;;;18.38;10.18;;;;;;;;;;4931495;28;20019;-61
2022/05/25 08:49:22;;;;;;;18.10;10.52;;;;;;;;;;4996598;28;20491;-63
2022/05/25 08:51:51;;;;;;;15.30;9.10;;;;;;;;;;4930920;28;20031;-61
2022/05/25 08:54:18;;;;;;;15.77;9.23;;;;;;;;;;4590785;28;10000375;-62
2022/05/25 08:56:44;;;;;;;16.00;9.73;;;;;;;;;;4976092;28;20035;-62
2022/05/25 08:59:13;;;;;;;16.20;9.98;;;;;;;;;;5013574;28;20025;-60
2022/05/25 09:01:53;;;;;;;16.60;9.55;;;;;;;;;;4947481;28;20030;-58
2022/05/25 09:04:19;;;;;;;15.52;9.40;;;;;;;;;;4937812;29;20028;-64
2022/05/25 09:06:58;;;;;;;17.02;9.30;;;;;;;;;;4993732;28;20027;-61
2022/05/25 09:09:30;;;;;;;15.70;9.77;;;;;;;;;;4927988;28;20019;-59
2022/05/25 09:11:58;;;;;;;18.58;9.80;;;;;;;;;;4995161;28;20035;-60
2022/05/25 09:14:24;;;;;;;;;;;;;;;;;;4948188;28;20110;-61
2022/05/25 09:16:52;;;;;;;16.80;9.70;;;;;;;;;;4944025;28;20493;-57
2022/05/25 09:19:20;;;;;;;17.15;9.50;;;;;;;;;;4947367;29;20100;-57
2022/05/25 09:21:49;;;;;;;16.90;9.70;;;;;;;;;;4947531;29;20137;-57
2022/05/25 09:24:15;;;;;;;;;;;;;;;;;;4947762;29;20078;-60
2022/05/25 09:26:42;;;;;;;18.35;10.07;;;;;;;;;;4947054;28;19968;-60
2022/05/25 09:29:09;;;;;;;15.43;9.50;;;;;;;;;;4943272;29;20504;-62
2022/05/25 09:31:41;;;;;;;15.50;10.00;;;;;;;;;;4927892;28;20048;-64
2022/05/25 09:34:11;;;;;;;16.52;9.85;;;;;;;;;;4927701;28;20035;-64
2022/05/25 09:36:49;;;;;;;17.00;9.85;;;;;;;;;;4928327;29;20024;-64
2022/05/25 09:39:15;;;;;;;16.42;10.20;;;;;;;;;;4994522;28;20032;-62
2022/05/25 09:41:43;;;;;;;16.00;9.60;;;;;;;;;;4930862;29;20399;-65
2022/05/25 09:44:10;;;;;;;16.05;9.48;;;;;;;;;;4930703;29;20028;-64
2022/05/25 09:46:37;;;;;;;15.48;9.85;;;;;;;;;;4930686;29;20027;-64
2022/05/25 09:49:05;;;;;;;15.98;9.77;;;;;;;;;;4995199;28;20032;-63
2022/05/25 09:51:35;;;;;;;15.90;9.68;;;;;;;;;;4929268;29;20146;-59
2022/05/25 09:54:04;;;;;;;16.20;10.05;;;;;;;;;;4929243;29;20047;-64
2022/05/25 09:56:32;;;;;;;16.23;10.35;;;;;;;;;;4930524;29;20107;-63
2022/05/25 09:58:58;;;;;;;;;;;;;;;;;;4930413;29;20024;-64
2022/05/25 10:01:28;;;;;;;15.50;9.80;;;;;;;;;;4930809;29;19906;-63
2022/05/25 10:03:55;;;;;;;17.13;10.70;;;;;;;;;;4930322;29;20541;-62
2022/05/25 10:06:24;;;;;;;17.00;10.48;;;;;;;;;;4930261;29;20028;-65
2022/05/25 10:08:51;;;;;;;15.18;9.90;;;;;;;;;;4998087;28;20484;-65
2022/05/25 10:11:33;;;;;;;16.45;10.20;;;;;;;;;;4933641;29;20023;-64
2022/05/25 10:14:20;;;;;;;17.60;9.40;;;;;;;;;;4934188;29;20033;-64
2022/05/25 10:16:46;;;;;;;14.40;9.50;;;;;;;;;;4933790;29;20027;-64
2022/05/25 10:19:14;;;;;;;23.80;10.18;;;;;;;;;;4933273;29;20031;-62
2022/05/25 10:21:46;;;;;;;18.73;9.40;;;;;;;;;;4933331;29;20111;-64
2022/05/25 10:24:40;;;;;;;15.02;9.70;;;;;;;;;;4999394;28;20027;-64
2022/05/25 10:27:20;;;;;;;15.55;10.07;;;;;;;;;;4996992;28;20036;-64
2022/05/25 10:38:12;;;;;;;15.68;9.30;;;;;;;;;;4932837;29;20360;-64
2022/05/25 10:40:42;;;;;;;15.63;9.60;;;;;;;;;;4998666;28;20078;-63
2022/05/25 10:43:13;;;;;;;14.90;9.43;;;;;;;;;;4932888;29;20035;-62
2022/05/25 10:45:41;;;;;;;14.98;9.45;;;;;;;;;;4932848;29;20035;-62
2022/05/25 10:48:07;;;;;;;15.43;9.13;;;;;;;;;;4998299;28;20027;-63
2022/05/25 10:50:42;;;;;;;14.38;9.02;;;;;;;;;;4933058;29;20020;-62
2022/05/25 10:53:20;;;;;;;14.52;9.18;;;;;;;;;;4933004;29;20400;-63
2022/05/25 10:55:49;;;;;;;15.70;9.50;;;;;;;;;;4933416;29;20028;-63
2022/05/25 10:58:34;;;;;;;15.63;9.30;;;;;;;;;;4998952;28;20039;-62
2022/05/25 11:01:32;;;;;;;17.95;9.45;;;;;;;;;;4933507;29;20043;-63
2022/05/25 11:03:58;;;;;;;;;;;;;;;;;;4943925;28;20468;-63
2022/05/25 11:06:43;;;;;;;16.30;9.93;;;;;;;;;;4933239;29;19914;-62
2022/05/25 11:09:21;;;;;;;15.30;9.60;;;;;;;;;;4998340;28;20534;-62
2022/05/25 11:12:19;;;;;;;16.83;9.87;;;;;;;;;;4933175;29;20028;-59
2022/05/25 11:14:58;;;;;;;15.00;9.52;;;;;;;;;;4943574;28;20035;-63
2022/05/25 11:17:23;;;;;;;14.98;9.30;;;;;;;;;;4932788;29;20020;-63
2022/05/25 11:19:58;;;;;;;16.65;9.77;;;;;;;;;;4932474;29;20031;-65
2022/05/25 11:22:43;;;;;;;15.65;9.55;;;;;;;;;;4933285;29;20107;-63
2022/05/25 11:25:44;;;;;;;15.18;9.90;;;;;;;;;;4933499;29;20032;-62
2022/05/25 11:28:10;;;;;;;15.30;9.50;;;;;;;;;;4952238;29;20094;-63
2022/05/25 11:30:48;;;;;;;14.93;9.27;;;;;;;;;;4936919;28;20111;-63
2022/05/25 11:33:33;;;;;;;16.85;9.30;;;;;;;;;;4932765;29;20391;-62
2022/05/25 11:36:02;;;;;;;15.55;9.80;;;;;;;;;;4933023;29;20036;-63
2022/05/25 11:38:33;;;;;;;15.13;9.70;;;;;;;;;;4931859;29;20020;-60
2022/05/25 11:40:59;;;;;;;15.85;9.30;;;;;;;;;;4932261;29;20495;-58
2022/05/25 11:43:31;;;;;;;14.45;9.13;;;;;;;;;;4997866;28;20548;-61
2022/05/25 11:46:14;;;;;;;14.13;9.40;;;;;;;;;;4932349;29;20028;-62
2022/05/25 11:48:56;;;;;;;15.20;9.90;;;;;;;;;;4986394;23;20050;-53
2022/05/25 11:51:34;;;;;;;14.15;9.52;;;;;;;;;;4935330;28;20426;-53
2022/05/25 11:54:21;;;;;;;15.90;9.45;;;;;;;;;;4952453;28;20035;-56
2022/05/25 11:56:54;;;;;;;15.40;9.90;;;;;;;;;;4952111;29;20023;-57
2022/05/25 11:59:20;;;;;;;15.85;9.43;;;;;;;;;;5000430;28;20027;-57
2022/05/25 12:01:46;;;;;;;15.55;9.45;;;;;;;;;;4951366;28;20070;-55
2022/05/25 12:04:12;;;;;;;15.38;8.85;;;;;;;;;;4951748;29;20035;-58
2022/05/25 12:06:53;;;;;;;15.52;9.50;;;;;;;;;;4951696;29;20533;-57
2022/05/25 12:09:36;;;;;;;15.85;9.63;;;;;;;;;;4951862;29;20023;-59
2022/05/25 12:12:10;;;;;;;16.05;9.85;;;;;;;;;;4663410;28;9999859;-60
2022/05/25 12:14:36;;;;;;;14.60;9.50;;;;;;;;;;4950730;28;20471;-58
2022/05/25 12:17:25;;;;;;;15.68;9.35;;;;;;;;;;4938052;28;20063;-57
2022/05/25 12:19:52;;;;;;;16.88;9.50;;;;;;;;;;4994895;28;20042;-59
2022/05/25 12:22:21;;;;;;;15.38;9.32;;;;;;;;;;4948155;29;20027;-57
2022/05/25 12:24:55;;;;;;;15.05;9.23;;;18.40;99.90;;;;;;5014729;28;20114;-58
2022/05/25 12:27:30;;;;;;;14.98;9.10;;;23.40;88.60;;;;;;4945457;28;20118;-57
2022/05/25 12:30:05;;;;;;;17.42;10.00;;;22.60;88.00;;;;;;4945307;29;20083;-60
2022/05/25 12:32:31;;;;;;;14.55;9.30;;;22.40;88.00;;;;;;5014569;28;20031;-60
2022/05/25 12:34:57;;;;;;;16.77;9.60;;;21.60;90.20;;;;;;5014686;28;20127;-59
2022/05/25 12:37:29;;;;;;;14.57;9.75;;;21.00;90.90;;;;;;4934195;28;20458;-58
2022/05/25 12:40:07;;;;;;;14.50;9.52;;;20.90;90.70;;;;;;4929436;29;20043;-54
2022/05/25 12:42:38;;;;;;;14.20;9.50;;;21.40;89.80;;;;;;4996802;28;20028;-65
2022/05/25 12:50:40;;;;;;;16.05;9.45;;;20.50;90.80;;;;;;4932177;29;20078;-63
2022/05/25 12:53:57;;;;;;;15.27;9.45;;;21.20;90.80;;;;;;4932171;29;20024;-64
2022/05/25 12:56:25;;;;;;;17.58;9.43;;;21.70;90.50;;;;;;4963595;28;20115;-64
2022/05/25 12:58:55;;;;;;;14.63;9.38;;;22.50;89.90;;;;;;4996796;28;20027;-63
2022/05/25 13:01:23;;;;;;;15.82;9.80;;;22.80;88.80;;;;;;4998015;28;20126;-64
2022/05/25 13:03:49;;;;;;;;;;;22.80;86.80;;;;;;4951682;28;20036;-67
2022/05/25 13:06:17;;;;;;;14.80;9.13;;;22.40;87.10;;;;;;4601330;28;10000113;-63
2022/05/25 13:08:58;;;;;;;14.73;9.60;;;22.90;87.10;;;;;;4994282;28;20055;-63
2022/05/25 13:11:30;;;;;;;14.80;10.43;;;;;;;;;;4929394;29;20028;-63
2022/05/25 13:13:56;;;;;;;15.43;10.45;;;;;;;;;;4929123;29;20131;-63
2022/05/25 13:16:55;;;;;;;16.13;10.20;;;;;;;;;;4929192;29;20035;-64
2022/05/25 13:19:33;;;;;;;14.50;10.18;;;;;;;;;;4960143;28;20515;-62
2022/05/25 13:22:02;;;;;;;14.32;9.75;;;;;;;;;;4929161;28;20349;-65
2022/05/25 13:24:28;;;;;;;14.70;9.70;;;;;;;;;;4929263;28;20036;-64
2022/05/25 13:27:06;;;;;;;16.00;9.88;;;;;;;;;;4929151;28;20020;-65
2022/05/25 13:29:35;;;;;;;14.60;9.45;;;;;;;;;;4994523;28;20032;-62
2022/05/25 13:32:12;;;;;;;16.23;9.10;;;;;;;;;;4994673;28;20032;-64
2022/05/25 13:34:38;;;;;;;15.00;9.65;;;;;;;;;;4994382;28;20040;-66
2022/05/25 13:37:06;;;;;;;14.10;9.52;;;;;;;;;;4942208;28;20027;-62
2022/05/25 13:39:32;;;;;;;15.77;9.10;;;24.20;86.60;;;;;;4947932;29;20039;-65
2022/05/25 13:42:14;;;;;;;14.73;9.30;;;22.80;83.70;;;;;;5014423;28;20047;-62
2022/05/25 13:44:44;;;;;;;14.63;9.70;;;22.20;85.50;;;;;;5018377;28;20045;-65
2022/05/25 13:47:20;;;;;;;15.80;9.63;;;23.00;86.20;;;;;;4951547;29;20030;-62
2022/05/25 13:49:49;;;;;;;14.65;9.70;;;23.80;83.80;;;;;;5017631;28;20039;-63
2022/05/25 13:52:22;;;;;;;;;;;23.60;84.60;;;;;;5017558;28;20038;-66
2022/05/25 13:54:52;;;;;;;18.52;9.90;;;23.40;84.80;;;;;;4950937;29;19998;-64
2022/05/25 13:57:45;;;;;;;17.17;10.15;;;23.20;83.90;;;;;;4950885;28;20699;-62
2022/05/25 14:00:19;;;;;;;14.88;9.95;;;23.80;84.00;;;;;;4948895;29;20038;-62
2022/05/25 14:02:49;;;;;;;14.98;10.13;;;24.30;83.40;;;;;;4951234;29;20027;-64
2022/05/25 14:05:23;;;;;;;14.95;9.80;;;23.70;81.90;;;;;;4951314;29;20035;-67
2022/05/25 14:07:50;;;;;;;14.95;9.88;;;22.90;84.70;;;;;;4951017;29;20027;-65
2022/05/25 14:13:27;;;;;;;14.40;9.40;;;22.30;85.00;;;;;;4951836;29;20162;-71
2022/05/25 14:16:08;;;;;;;14.60;9.70;;;22.60;85.50;;;;;;4951752;28;20080;-64
2022/05/25 14:19:02;;;;;;;15.80;9.50;;;22.80;84.00;;;;;;4607601;28;10000281;-66
2022/05/25 14:21:32;;;;;;;16.02;10.00;;;22.90;84.20;;;;;;4932273;28;20299;-65
2022/05/25 14:24:01;;;;;;;14.85;10.25;;;23.90;82.70;;;;;;4931089;28;20516;-65
2022/05/25 14:26:30;;;;;;;14.73;9.70;;;24.30;81.40;;;;;;4998473;28;20023;-66
2022/05/25 14:28:56;;;;;;;15.32;10.50;;;24.00;82.60;;;;;;4931897;28;20081;-66
2022/05/25 14:31:23;;;;;;;14.50;9.70;;;23.90;82.00;;;;;;4999432;28;20052;-66
2022/05/25 14:34:05;;;;;;;16.05;9.98;;;22.80;83.60;;;;;;4999398;28;20065;-68
2022/05/25 14:36:32;;;;;;;14.70;10.00;;;21.60;85.60;;;;;;4933879;28;20340;-65
2022/05/25 14:38:58;;;;;;;15.07;9.77;;;20.70;88.40;;;;;;4934598;29;20050;-65
2022/05/25 14:41:25;;;;;;;14.20;9.23;;;20.10;89.30;;;;;;4591810;28;10000416;-66
2022/05/25 14:43:51;;;;;;;16.48;9.35;;;19.60;87.30;;;;;;4931298;29;20035;-64
2022/05/25 14:46:29;;;;;;;14.85;9.30;;;19.40;88.20;;;;;;5001466;28;20031;-63
2022/05/25 14:49:00;;;;;;;14.93;9.68;;;19.20;86.40;;;;;;4950449;28;20550;-63
2022/05/25 14:51:36;;;;;;;17.65;9.95;;;19.20;87.50;;;;;;4951751;29;20066;-65
2022/05/25 14:54:10;;;;;;;15.85;9.20;;;19.40;87.60;;;;;;4949844;28;20027;-63